• Join FlightAware (Why Join?)
  • Login
  • US Flag 
Gobble Gobble! 
08:22AM EST


 

Airport Tracker/Info


-or-


 

Live Flight TrackerFlight Track Log ✈ KAP927 ✈ 22-Jun-2013 ✈ KALB - KBOS

Flight Track Log - Related Links

Times and Time Zones

All times are in EDT time to prevent confusion due to time zone crossing. See the KAP927 flight status page for this flight to view local times or setup timezone preferences in your user account.

Time Position Orientation Groundspeed Altitude Reporting Facility
EDT Latitude Longitude Course Direction KTS MPH feet Rate Location/Type
08:33AM 42.7494 -73.7236 89° East 119 137 1,500  Level Boston Center
08:34AM 42.7542 -73.6731 83° East 137 158 2,000 540 Climbing Boston Center
08:35AM 42.7589 -73.6222 83° East 136 157 2,600 540 Climbing Boston Center
08:36AM 42.7636 -73.5714 83° East 136 157 3,100 480 Climbing Boston Center
08:37AM 42.7683 -73.5206 83° East 140 161 3,600 540 Climbing Boston Center
08:38AM 42.7708 -73.4667 86° East 144 166 4,200 540 Climbing Boston Center
08:39AM 42.7756 -73.4075 84° East 145 167 4,700 420 Climbing Boston Center
08:40AM 42.7758 -73.3622 90° East 146 168 5,100 420 Climbing Boston Center
08:41AM 42.7681 -73.3111 102° East 148 170 5,600 420 Climbing Boston Center
08:42AM 42.7542 -73.2261 103° East 152 175 6,200 360 Climbing Boston Center
08:43AM 42.7439 -73.1753 105° East 147 169 6,600 360 Climbing Boston Center
08:44AM 42.7339 -73.1128 102° East 142 163 7,000 180 Climbing Boston Center
08:45AM 42.7217 -73.0561 106° East 158 182 7,000  Level Boston Center
08:46AM 42.7097 -72.9883 103° East 168 193 7,000  Level Boston Center
08:47AM 42.6994 -72.9261 103° East 168 193 7,000  Level Boston Center
08:48AM 42.6894 -72.8608 102° East 168 193 7,000  Level Boston Center
08:49AM 42.6792 -72.7986 103° East 168 193 7,000  Level Boston Center
08:50AM 42.6667 -72.7367 105° East 168 193 7,000  Level Boston Center
08:51AM 42.6564 -72.6744 103° East 168 193 7,000  Level Boston Center
08:52AM 42.6442 -72.6094 104° East 168 193 7,100  Climbing Boston Center
08:53AM 42.6358 -72.5558 102° East 168 193 7,100  Level Boston Center
08:54AM 42.6233 -72.4936 105° East 168 193 7,100  Level Boston Center
08:55AM 42.6108 -72.4317 105° East 168 193 7,100  Level Boston Center
08:56AM 42.6006 -72.3694 103° East 168 193 7,100  Level Boston Center
08:57AM 42.5900 -72.3075 103° East 168 193 7,100  Level Boston Center
08:58AM 42.5753 -72.2342 105° East 168 193 7,100  Level Boston Center
08:59AM 42.5647 -72.1722 103° East 168 193 7,100  Level Boston Center
09:00AM 42.5519 -72.1075 105° East 168 193 7,100  Level Boston Center
09:01AM 42.5436 -72.0456 100° East 163 188 7,100  Level Boston Center
09:02AM 42.5369 -71.9892 99° East 163 188 7,100  Level Boston Center
09:03AM 42.5325 -71.9189 95° East 168 193 7,100  Level Boston Center
09:04AM 42.5261 -71.8597 98° East 168 193 7,100  Level Boston Center
09:05AM 42.5214 -71.7894 95° East 163 188 7,100  Level Boston Center
09:06AM 42.5150 -71.7303 98° East 163 188 7,100  Level Boston Center
09:07AM 42.5144 -71.6628 91° East 163 188 7,100  Level Boston Center
09:08AM 42.5167 -71.6167 86° East 171 197 7,100  Level KA90
09:09AM 42.5167 -71.5500 90° East 171 197 7,100  Level KA90
09:10AM 42.5167 -71.4833 90° East 172 198 7,100  Level KA90
09:11AM 42.5333 -71.4167 71° East 175 201 7,100 -240 Level KA90
09:12AM 42.5333 -71.3500 90° East 188 216 6,700 -600 Descending KA90
09:13AM 42.5333 -71.2833 90° East 197 227 6,000 -660 Descending KA90
09:14AM 42.5333 -71.2000 90° East 198 228 5,400 -660 Descending KA90
09:15AM 42.5333 -71.1167 90° East 201 231 4,700 -720 Descending KA90
09:16AM 42.5167 -71.0500 109° East 191 220 4,000 -720 Descending KA90
09:17AM 42.5167 -70.9833 90° East 182 209 3,300 -780 Descending KA90
09:18AM 42.4833 -70.9500 144° Southeast 165 190 2,500 -900 Descending KA90
09:19AM 42.4333 -70.9667 194° South 139 160 1,500 -840 Descending KA90
09:20AM 42.4000 -70.9833 200° South 124 143 800 -720 Descending KA90
09:22AM 42.3630 -71.0064 270° West  Level Estimated
09:29AM 42.3630 -71.0064 270° West  Level Estimated